Time;durP1;ratioP1;P1;durP2;ratioP2;P2;SDS_P1;SDS_P2;PMS_P1;PMS_P2;Temp;Humidity;BMP_temperature;BMP_pressure;BME280_temperature;BME280_humidity;BME280_pressure;Samples;Min_cycle;Max_cycle;Signal;HPM_P1;HPM_P2
2023/12/14 00:02:25;;;;;;;13.80;11.07;;;;;;;5.61;100.00;101016.50;10333213;28;20030;-72
2023/12/14 00:07:25;;;;;;;14.40;11.85;;;;;;;5.58;100.00;101030.25;10332122;28;20169;-72
2023/12/14 00:12:26;;;;;;;12.70;11.05;;;;;;;5.61;100.00;101040.66;10332537;28;20030;-73
2023/12/14 00:17:26;;;;;;;15.52;10.40;;;;;;;5.62;100.00;101046.91;10333037;28;20370;-73
2023/12/14 00:22:27;;;;;;;12.23;10.70;;;;;;;5.67;100.00;101056.16;10330848;28;20030;-72
2023/12/14 00:27:27;;;;;;;17.38;10.50;;;;;;;5.62;100.00;101046.91;10331481;28;20034;-73
2023/12/14 00:32:28;;;;;;;13.15;11.02;;;;;;;5.64;100.00;101075.28;10330457;28;20022;-72
2023/12/14 00:37:30;;;;;;;11.18;9.90;;;;;;;5.66;100.00;101086.72;10329804;28;20086;-72
2023/12/14 00:42:30;;;;;;;13.45;10.80;;;;;;;5.71;100.00;101097.84;10330982;28;20027;-72
2023/12/14 00:47:31;;;;;;;14.10;9.88;;;;;;;5.57;100.00;101103.78;10330156;28;20102;-72
2023/12/14 00:52:31;;;;;;;11.82;8.65;;;;;;;5.54;100.00;101117.53;10331311;28;20058;-72
2023/12/14 00:57:32;;;;;;;14.95;9.45;;;;;;;5.49;100.00;101112.66;10330084;28;20129;-72
2023/12/14 01:02:33;;;;;;;12.43;9.77;;;;;;;5.53;100.00;101132.81;10314688;28;20030;-72
2023/12/14 01:07:33;;;;;;;11.18;8.98;;;;;;;5.58;100.00;101133.19;10330358;28;20382;-72
2023/12/14 01:12:34;;;;;;;15.30;10.52;;;;;;;5.49;100.00;101144.88;10339657;28;20117;-72
2023/12/14 01:17:37;;;;;;;12.27;9.57;;;;;;;5.52;100.00;101158.00;10339042;28;20030;-72
2023/12/14 01:22:38;;;;;;;15.68;9.50;;;;;;;5.50;100.00;101162.69;10338724;28;20046;-72
2023/12/14 01:27:38;;;;;;;17.70;11.82;;;;;;;5.51;100.00;101179.63;10323844;28;20405;-71
2023/12/14 01:32:40;;;;;;;17.65;13.05;;;;;;;5.57;100.00;101189.75;10339950;28;20053;-71
2023/12/14 01:37:40;;;;;;;21.40;11.77;;;;;;;5.63;100.00;101205.25;10338105;28;20041;-71
2023/12/14 01:42:41;;;;;;;15.27;11.82;;;;;;;5.68;100.00;101219.06;10340259;28;20431;-72
2023/12/14 01:47:42;;;;;;;14.40;10.82;;;;;;;5.68;100.00;101221.75;10339225;28;20150;-72
2023/12/14 01:52:43;;;;;;;21.25;11.82;;;;;;;5.66;100.00;101225.59;10341832;28;20072;-72
2023/12/14 01:57:43;;;;;;;14.05;10.60;;;;;;;5.68;100.00;101231.63;10341450;28;20069;-72
2023/12/14 02:02:45;;;;;;;18.85;11.95;;;;;;;5.72;100.00;101238.38;10337067;28;20108;-72
2023/12/14 02:07:46;;;;;;;18.30;12.15;;;;;;;5.69;100.00;101255.66;10322278;28;20031;-72
2023/12/14 02:12:46;;;;;;;19.67;10.93;;;;;;;5.63;100.00;101264.34;10339277;28;20026;-72
2023/12/14 02:17:47;;;;;;;25.63;12.52;;;;;;;5.60;100.00;101270.88;10339849;28;20121;-71
2023/12/14 02:22:54;;;;;;;25.92;12.57;;;;;;;5.61;100.00;101287.81;10337124;28;20439;-71
2023/12/14 02:27:55;;;;;;;15.38;10.85;;;;;;;5.57;100.00;101292.66;10337771;28;20084;-71
2023/12/14 02:32:56;;;;;;;16.02;10.88;;;;;;;5.63;100.00;101299.28;10334926;28;20072;-72
2023/12/14 02:37:56;;;;;;;18.52;9.40;;;;;;;5.65;100.00;101307.16;10337635;28;20042;-71
2023/12/14 02:42:57;;;;;;;13.32;10.40;;;;;;;5.61;100.00;101309.31;10338833;28;20053;-71
2023/12/14 02:47:57;;;;;;;18.77;11.30;;;;;;;5.54;100.00;101297.50;10336898;28;20032;-71
2023/12/14 02:52:58;;;;;;;15.65;10.93;;;;;;;5.58;100.00;101307.81;10335285;28;20068;-71
2023/12/14 02:57:58;;;;;;;17.73;10.13;;;;;;;5.63;100.00;101312.72;10334318;28;20046;-71
2023/12/14 03:02:59;;;;;;;13.25;9.45;;;;;;;5.52;100.00;101327.22;10335784;28;20362;-71
2023/12/14 03:08:00;;;;;;;13.95;9.02;;;;;;;5.56;100.00;101330.44;10334711;28;20129;-71
2023/12/14 03:13:00;;;;;;;20.42;12.40;;;;;;;5.53;100.00;101328.06;10333106;28;20036;-71
2023/12/14 03:18:03;;;;;;;12.95;8.43;;;;;;;5.55;100.00;101331.44;10333121;28;20481;-71
2023/12/14 03:23:03;;;;;;;19.30;9.05;;;;;;;5.56;100.00;101342.03;10334823;28;20149;-71
2023/12/14 03:28:04;;;;;;;15.23;9.05;;;;;;;5.53;100.00;101342.34;10334485;28;20068;-71
2023/12/14 03:33:06;;;;;;;14.27;9.85;;;;;;;5.49;100.00;101337.44;10334188;28;20026;-71
2023/12/14 03:38:07;;;;;;;8.63;7.50;;;;;;;5.50;100.00;101341.81;10318355;28;20053;-72
2023/12/14 03:43:08;;;;;;;10.20;9.07;;;;;;;5.44;100.00;101362.06;10315831;28;20106;-71
2023/12/14 03:48:09;;;;;;;13.60;9.52;;;;;;;5.42;100.00;101360.50;10333213;28;20114;-71
2023/12/14 03:53:09;;;;;;;14.88;7.35;;;;;;;5.45;100.00;101362.91;10333314;28;20041;-71
2023/12/14 03:58:10;;;;;;;10.32;9.02;;;;;;;5.46;100.00;101369.97;10331774;28;20118;-71
2023/12/14 04:03:10;;;;;;;9.45;6.53;;;;;;;5.47;100.00;101368.97;10315299;28;20209;-71
2023/12/14 04:08:11;;;;;;;10.30;8.73;;;;;;;5.46;100.00;101375.34;10333076;28;20402;-71
2023/12/14 04:13:12;;;;;;;10.07;7.30;;;;;;;5.47;100.00;101387.78;10333436;28;20493;-71
2023/12/14 04:18:12;;;;;;;11.05;8.60;;;;;;;5.44;100.00;101398.81;10332689;28;20101;-70
2023/12/14 04:23:12;;;;;;;13.48;8.18;;;;;;;5.49;100.00;101409.97;10332678;28;20129;-71
2023/12/14 04:28:13;;;;;;;11.93;5.55;;;;;;;5.57;100.00;101418.09;10333033;28;20034;-71
2023/12/14 04:33:13;;;;;;;7.00;6.22;;;;;;;5.58;100.00;101434.06;10332821;28;20054;-71
2023/12/14 04:38:14;;;;;;;12.27;7.03;;;;;;;5.61;100.00;101446.34;10332149;28;20458;-70
2023/12/14 04:43:15;;;;;;;8.02;6.13;;;;;;;5.62;100.00;101469.53;10333500;28;20035;-71
2023/12/14 04:48:15;;;;;;;12.32;6.75;;;;;;;5.64;100.00;101480.97;10346382;28;20109;-70
2023/12/14 04:53:16;;;;;;;13.93;5.40;;;;;;;5.63;100.00;101489.19;10345828;28;20034;-72
2023/12/14 04:58:16;;;;;;;14.50;5.88;;;;;;;5.63;100.00;101495.41;10345255;28;20419;-71
2023/12/14 05:03:17;;;;;;;5.43;4.47;;;;;;;5.60;100.00;101490.34;10347191;28;20118;-71
2023/12/14 05:08:17;;;;;;;11.73;5.68;;;;;;;5.57;100.00;101498.69;10346782;28;20049;-70
2023/12/14 05:13:18;;;;;;;11.10;6.88;;;;;;;5.57;100.00;101504.06;10346309;28;20080;-71
2023/12/14 05:18:18;;;;;;;7.43;5.47;;;;;;;5.33;100.00;101516.22;10346123;28;20068;-71
2023/12/14 05:23:19;;;;;;;11.05;5.07;;;;;;;5.09;100.00;101515.88;10346522;28;20121;-78
2023/12/14 05:28:19;;;;;;;5.32;4.80;;;;;;;4.81;100.00;101521.16;10345791;28;20030;-75
2023/12/14 05:33:20;;;;;;;6.72;5.88;;;;;;;4.62;100.00;101524.72;10345310;28;20423;-71
2023/12/14 05:38:22;;;;;;;14.93;5.80;;;;;;;4.38;100.00;101525.19;10345839;28;20026;-71
2023/12/14 05:43:22;;;;;;;5.28;4.88;;;;;;;4.35;100.00;101538.03;10346602;28;20026;-71
2023/12/14 05:48:23;;;;;;;9.05;6.45;;;;;;;4.25;100.00;101539.88;10344824;28;20522;-74
2023/12/14 05:53:23;;;;;;;8.63;5.43;;;;;;;4.09;100.00;101548.47;10344237;28;20193;-71
2023/12/14 05:58:24;;;;;;;5.30;4.78;;;;;;;3.95;100.00;101563.94;10338885;28;20063;-72
2023/12/14 06:03:25;;;;;;;7.60;5.03;;;;;;;3.82;100.00;101578.59;10338949;28;20034;-72
2023/12/14 06:08:25;;;;;;;12.60;5.78;;;;;;;3.78;100.00;101596.75;10339825;28;20060;-72
2023/12/14 06:13:27;;;;;;;7.45;6.05;;;;;;;3.71;100.00;101598.31;10337243;28;20130;-72
2023/12/14 06:18:27;;;;;;;11.25;7.28;;;;;;;3.67;100.00;101612.94;10337528;28;20065;-70
2023/12/14 06:23:28;;;;;;;9.13;6.63;;;;;;;3.57;100.00;101630.78;10337000;28;20443;-70
2023/12/14 06:28:28;;;;;;;6.78;6.13;;;;;;;3.46;100.00;101645.97;10336623;28;20421;-70
2023/12/14 06:33:29;;;;;;;23.88;7.80;;;;;;;3.37;100.00;101661.97;10336482;28;20038;-70
2023/12/14 06:38:29;;;;;;;12.30;7.47;;;;;;;3.32;100.00;101669.53;10335866;28;20031;-70
2023/12/14 06:43:30;;;;;;;18.33;9.23;;;;;;;3.28;100.00;101676.16;10334790;28;20112;-70
2023/12/14 06:48:30;;;;;;;11.90;7.70;;;;;;;3.25;100.00;101679.94;10337698;28;20454;-70
2023/12/14 06:53:31;;;;;;;16.38;9.77;;;;;;;3.22;100.00;101681.06;10336544;28;20053;-70
2023/12/14 06:58:31;;;;;;;16.40;9.50;;;;;;;3.20;100.00;101695.53;10336813;28;20440;-71
2023/12/14 07:03:32;;;;;;;12.10;9.23;;;;;;;3.13;100.00;101692.53;10334567;28;20497;-70
2023/12/14 07:08:33;;;;;;;15.65;9.30;;;;;;;3.08;100.00;101707.28;10334881;28;20117;-70
2023/12/14 07:13:36;;;;;;;10.50;8.82;;;;;;;2.96;100.00;101710.00;10334972;28;20458;-70
2023/12/14 07:18:40;;;;;;;15.27;8.98;;;;;;;2.83;100.00;101722.69;10335092;28;20034;-70
2023/12/14 07:23:41;;;;;;;12.98;8.50;;;;;;;2.80;100.00;101741.66;10334900;28;20046;-70
2023/12/14 07:28:41;;;;;;;12.80;8.63;;;;;;;2.76;100.00;101745.59;10335409;28;20424;-70
2023/12/14 07:33:42;;;;;;;13.68;9.23;;;;;;;2.76;100.00;101740.22;10335499;28;20366;-70
2023/12/14 07:38:43;;;;;;;9.63;7.88;;;;;;;2.80;100.00;101741.66;10335479;28;20450;-70
2023/12/14 07:43:43;;;;;;;10.77;8.65;;;;;;;2.85;100.00;101736.81;10334077;28;20054;-71
2023/12/14 07:48:44;;;;;;;13.95;10.25;;;;;;;2.99;100.00;101741.00;10337439;28;20419;-71
2023/12/14 07:53:46;;;;;;;16.50;9.13;;;;;;;2.95;100.00;101743.09;10334366;28;20085;-70
2023/12/14 07:58:47;;;;;;;12.57;9.75;;;;;;;2.89;100.00;101746.25;10332633;28;20073;-70
2023/12/14 08:03:47;;;;;;;13.65;9.82;;;;;;;2.93;100.00;101753.06;10331148;28;20394;-70
2023/12/14 08:08:48;;;;;;;13.35;9.65;;;;;;;3.12;100.00;101776.47;10333092;28;20065;-70
2023/12/14 08:13:48;;;;;;;10.70;9.55;;;;;;;3.50;100.00;101781.28;10331379;28;20117;-70
2023/12/14 08:18:49;;;;;;;14.93;11.93;;;;;;;4.01;100.00;101794.84;10330134;28;20029;-70
2023/12/14 08:23:49;;;;;;;14.13;12.35;;;;;;;4.70;100.00;101808.41;10330687;28;20105;-70
2023/12/14 08:28:50;;;;;;;14.50;13.07;;;;;;;5.51;100.00;101818.97;10330079;28;20481;-70
2023/12/14 08:33:52;;;;;;;24.60;14.30;;;;;;;5.95;100.00;101827.44;10331880;28;20377;-70
2023/12/14 08:38:52;;;;;;;19.27;13.40;;;;;;;5.88;100.00;101842.44;10329992;28;20362;-70
2023/12/14 08:43:55;;;;;;;16.10;11.43;;;;;;;5.87;100.00;101841.59;10329976;28;20034;-70
2023/12/14 08:48:56;;;;;;;18.00;10.98;;;;;;;6.07;100.00;101841.59;10331077;28;20108;-70
2023/12/14 08:53:56;;;;;;;16.95;9.77;;;;;;;6.18;100.00;101846.78;10330405;28;20042;-70
2023/12/14 08:58:59;;;;;;;15.55;7.78;;;;;;;6.95;100.00;101848.28;10328763;28;20090;-71
2023/12/14 09:04:00;;;;;;;7.13;6.43;;;;;;;7.32;100.00;101844.66;10331792;28;20070;-71
2023/12/14 09:09:00;;;;;;;8.35;6.15;;;;;;;7.38;100.00;101871.00;10329699;28;20029;-71
2023/12/14 09:14:01;;;;;;;6.82;4.90;;;;;;;7.29;100.00;101875.44;10330648;28;20038;-70
2023/12/14 09:19:01;;;;;;;8.68;5.45;;;;;;;6.98;100.00;101875.75;10328543;28;20367;-70
2023/12/14 09:24:03;;;;;;;7.53;5.20;;;;;;;6.66;100.00;101891.50;10330817;28;20060;-70
2023/12/14 09:29:04;;;;;;;10.38;5.03;;;;;;;6.33;100.00;101903.66;10330803;28;20038;-70
2023/12/14 09:34:05;;;;;;;7.55;5.40;;;;;;;6.14;100.00;101913.47;10336707;28;20117;-71
2023/12/14 09:39:10;;;;;;;10.18;5.65;;;;;;;6.06;100.00;101916.00;10337938;28;20118;-70
2023/12/14 09:44:10;;;;;;;9.80;7.07;;;;;;;6.07;100.00;101930.31;10337395;28;20481;-70
2023/12/14 09:49:11;;;;;;;7.78;6.60;;;;;;;6.15;100.00;101936.66;10337255;28;20073;-70
2023/12/14 09:54:12;;;;;;;16.90;8.38;;;;;;;6.56;100.00;101933.75;10337347;28;20046;-70
2023/12/14 09:59:13;;;;;;;13.18;6.55;;;;;;;6.68;100.00;101929.91;10337344;28;20427;-70
2023/12/14 10:04:15;;;;;;;12.23;6.80;;;;;;;6.58;100.00;101932.63;10335383;28;20042;-70
2023/12/14 10:09:18;;;;;;;9.82;6.03;;;;;;;6.54;100.00;101942.00;10334838;28;20471;-70
2023/12/14 10:14:25;;;;;;;9.32;6.38;;;;;;;6.80;100.00;101933.28;10335892;28;20386;-70
2023/12/14 10:19:26;;;;;;;12.85;7.20;;;;;;;6.99;100.00;101941.28;10333338;28;20084;-69
2023/12/14 10:24:26;;;;;;;11.43;6.45;;;;;;;7.05;100.00;101954.16;10318018;28;20080;-71
2023/12/14 10:29:27;;;;;;;12.32;6.90;;;;;;;7.32;100.00;101947.91;10334484;28;20022;-71
2023/12/14 10:34:27;;;;;;;13.32;6.85;;;;;;;7.87;100.00;101947.78;10335170;28;20044;-71
2023/12/14 10:39:28;;;;;;;13.05;7.07;;;;;;;7.83;100.00;101964.44;10333938;28;20065;-70
2023/12/14 10:44:29;;;;;;;9.18;7.43;;;;;;;7.62;100.00;101978.22;10332682;28;20033;-71
2023/12/14 10:49:30;;;;;;;11.00;6.93;;;;;;;7.34;100.00;101978.25;10336712;28;20030;-71
2023/12/14 10:54:32;;;;;;;15.57;8.15;;;;;;;7.13;100.00;101981.16;10318799;28;20212;-70
2023/12/14 10:59:32;;;;;;;8.13;7.32;;;;;;;7.25;100.00;101981.00;10316962;28;20046;-70
2023/12/14 11:04:59;;;;;;;8.80;6.82;;;;;;;7.33;100.00;101991.84;10334400;28;20030;-70
2023/12/14 11:10:00;;;;;;;12.10;7.88;;;;;;;7.23;100.00;101999.97;10333953;28;20032;-70
2023/12/14 11:15:00;;;;;;;11.75;7.35;;;;;;;7.17;100.00;102003.25;10315881;28;20041;-70
2023/12/14 11:20:23;;;;;;;9.15;7.20;;;;;;;7.12;100.00;102006.41;10315902;28;20027;-70
2023/12/14 11:25:24;;;;;;;9.15;6.80;;;;;;;7.05;100.00;102001.75;10333200;28;20470;-70
2023/12/14 11:30:24;;;;;;;18.83;7.53;;;;;;;6.99;100.00;102004.06;10334018;28;20235;-71
2023/12/14 11:35:25;;;;;;;7.70;6.55;;;;;;;6.94;100.00;102009.03;10335593;28;20077;-70
2023/12/14 11:40:26;;;;;;;11.82;7.75;;;;;;;6.78;100.00;102007.94;10336532;28;20045;-71
2023/12/14 11:45:26;;;;;;;9.30;7.25;;;;;;;6.80;100.00;102016.72;10359347;28;20487;-70
2023/12/14 11:50:27;;;;;;;10.40;7.20;;;;;;;6.67;100.00;102015.19;10333121;28;20125;-70
2023/12/14 11:55:28;;;;;;;8.90;6.55;;;;;;;6.66;100.00;102021.56;10318208;28;20054;-70
2023/12/14 12:00:29;;;;;;;11.02;6.70;;;;;;;6.72;100.00;102020.97;10334978;28;20134;-70
2023/12/14 12:05:44;;;;;;;8.57;6.40;;;;;;;6.74;100.00;102019.00;10332453;28;20039;-70
2023/12/14 12:10:44;;;;;;;9.07;6.45;;;;;;;6.79;100.00;102021.25;10300004;28;20528;-70
2023/12/14 12:15:45;;;;;;;8.10;6.60;;;;;;;6.96;100.00;102019.66;10334035;28;20069;-70
2023/12/14 12:20:46;;;;;;;9.18;5.53;;;;;;;7.11;100.00;102015.47;10330189;28;20064;-70
2023/12/14 12:25:47;;;;;;;8.25;6.43;;;;;;;7.25;100.00;102018.72;10330003;28;20042;-70
2023/12/14 12:30:47;;;;;;;11.88;6.75;;;;;;;7.23;100.00;102027.75;10330112;28;20125;-70
2023/12/14 12:35:48;;;;;;;13.85;8.02;;;;;;;7.19;100.00;102029.06;10331669;28;20133;-70
2023/12/14 12:40:48;;;;;;;8.65;7.22;;;;;;;7.14;100.00;102028.66;10332046;28;20105;-71
2023/12/14 12:45:49;;;;;;;7.85;7.05;;;;;;;7.03;100.00;102028.84;10330170;28;20109;-70
2023/12/14 12:50:49;;;;;;;11.63;8.70;;;;;;;7.06;100.00;102031.25;10331213;28;20054;-70
2023/12/14 12:55:50;;;;;;;11.57;8.15;;;;;;;7.12;100.00;102038.75;10332072;28;20046;-70
2023/12/14 13:00:50;;;;;;;12.65;8.65;;;;;;;6.95;100.00;102032.25;10330421;28;20509;-70
2023/12/14 13:05:51;;;;;;;7.15;6.32;;;;;;;7.02;100.00;102035.22;10333745;28;20120;-70
2023/12/14 13:10:53;;;;;;;19.30;7.55;;;;;;;7.13;100.00;102037.72;10337850;28;20034;-71
2023/12/14 13:15:54;;;;;;;10.43;6.70;;;;;;;7.12;100.00;102040.59;10340341;28;20034;-70
2023/12/14 13:20:54;;;;;;;10.30;7.20;;;;;;;7.06;100.00;102050.09;10337827;28;20034;-70
2023/12/14 13:25:55;;;;;;;6.90;6.13;;;;;;;7.06;100.00;102044.72;10338888;28;20034;-71
2023/12/14 13:30:55;;;;;;;17.35;5.63;;;;;;;7.09;100.00;102044.41;10338083;28;20068;-71
2023/12/14 13:35:56;;;;;;;8.23;5.78;;;;;;;7.07;100.00;102053.63;10338735;28;20100;-70
2023/12/14 13:40:56;;;;;;;13.93;6.28;;;;;;;7.02;100.00;102055.91;10339164;28;20117;-71
2023/12/14 13:46:00;;;;;;;11.98;5.18;;;;;;;7.08;100.00;102074.19;10336693;28;20042;-70
2023/12/14 13:51:00;;;;;;;15.45;7.13;;;;;;;7.07;100.00;102076.03;10337396;28;20034;-71
2023/12/14 13:56:01;;;;;;;16.27;8.50;;;;;;;7.10;100.00;102072.19;10336949;28;20068;-71
2023/12/14 14:01:01;;;;;;;8.80;6.78;;;;;;;7.19;100.00;102085.63;10335195;28;20060;-70
2023/12/14 14:06:02;;;;;;;7.35;6.70;;;;;;;7.20;100.00;102086.47;10336285;28;20035;-70
2023/12/14 14:11:03;;;;;;;7.47;6.28;;;;;;;7.28;100.00;102094.69;10334903;28;20046;-71
2023/12/14 14:16:05;;;;;;;8.73;5.65;;;;;;;7.22;100.00;102092.59;10333925;28;20058;-71
2023/12/14 14:21:08;;;;;;;9.25;6.70;;;;;;;7.18;100.00;102102.81;10335807;28;20412;-71
2023/12/14 14:26:08;;;;;;;8.65;5.55;;;;;;;7.15;100.00;102102.25;10334217;28;20034;-70
2023/12/14 14:31:09;;;;;;;7.28;5.47;;;;;;;7.18;100.00;102110.88;10335179;28;20034;-70
2023/12/14 14:36:10;;;;;;;11.35;5.72;;;;;;;7.20;100.00;102114.28;10335659;28;20110;-71
2023/12/14 14:41:10;;;;;;;6.53;5.60;;;;;;;7.23;100.00;102127.44;10334835;28;20030;-70
2023/12/14 14:46:11;;;;;;;12.43;5.38;;;;;;;7.25;100.00;102131.88;10333581;28;20026;-70
2023/12/14 14:51:11;;;;;;;6.53;4.65;;;;;;;7.26;100.00;102136.25;10334144;28;20038;-70
2023/12/14 14:56:12;;;;;;;12.90;4.57;;;;;;;7.27;100.00;102138.78;10334328;28;20141;-71
2023/12/14 15:01:13;;;;;;;20.45;7.07;;;;;;;7.25;100.00;102161.50;10316667;28;20092;-70
2023/12/14 15:06:13;;;;;;;6.72;3.63;;;;;;;7.22;100.00;102150.00;10334186;28;20112;-70
2023/12/14 15:11:14;;;;;;;12.05;2.97;;;;;;;7.27;100.00;102173.81;10332032;28;20121;-71
2023/12/14 15:16:14;;;;;;;2.65;2.13;;;;;;;7.27;100.00;102181.88;10333974;28;20185;-71
2023/12/14 15:21:15;;;;;;;10.15;2.17;;;;;;;7.28;100.00;102180.06;10331969;28;20121;-71
2023/12/14 15:26:15;;;;;;;3.10;2.10;;;;;;;7.33;100.00;102199.34;10333252;28;20035;-70
2023/12/14 15:31:16;;;;;;;6.03;2.65;;;;;;;7.32;100.00;102206.56;10331207;28;20077;-71
2023/12/14 15:36:16;;;;;;;8.57;2.65;;;;;;;7.31;100.00;102215.66;10315440;28;20042;-71
2023/12/14 15:41:17;;;;;;;11.65;3.20;;;;;;;7.28;100.00;102215.09;10333184;28;20062;-70
2023/12/14 15:46:17;;;;;;;2.45;2.25;;;;;;;7.22;100.00;102219.22;10330564;28;20116;-70
2023/12/14 15:51:18;;;;;;;8.70;3.03;;;;;;;7.17;100.00;102225.00;10331286;28;20109;-70
2023/12/14 15:56:21;;;;;;;3.38;2.20;;;;;;;7.14;100.00;102240.63;10331596;28;20437;-71
2023/12/14 16:01:21;;;;;;;9.93;2.72;;;;;;;7.06;100.00;102238.63;10331990;28;20030;-71
2023/12/14 16:06:22;;;;;;;4.85;2.15;;;;;;;6.98;100.00;102239.31;10331556;28;20459;-70
2023/12/14 16:11:22;;;;;;;3.67;2.10;;;;;;;6.89;100.00;102253.66;10333004;28;20041;-71
2023/12/14 16:16:24;;;;;;;4.10;2.17;;;;;;;6.84;100.00;102247.00;10332485;28;20058;-70
2023/12/14 16:21:24;;;;;;;6.00;3.05;;;;;;;6.77;100.00;102256.63;10331199;28;20099;-70
2023/12/14 16:26:25;;;;;;;11.77;4.82;;;;;;;6.62;100.00;102250.78;10332146;28;20157;-71
2023/12/14 16:31:25;;;;;;;8.30;3.78;;;;;;;6.49;100.00;102245.66;10332445;28;20479;-71
2023/12/14 16:36:26;;;;;;;13.27;4.50;;;;;;;6.44;100.00;102258.66;10330199;28;20077;-71
2023/12/14 16:41:26;;;;;;;5.50;3.45;;;;;;;6.42;100.00;102271.41;10314189;28;20033;-70
2023/12/14 16:46:27;;;;;;;6.90;3.80;;;;;;;6.43;100.00;102282.03;10330810;28;20117;-71
2023/12/14 16:51:27;;;;;;;8.68;3.80;;;;;;;6.45;100.00;102281.91;10331788;28;20057;-71
2023/12/14 16:56:29;;;;;;;10.88;3.80;;;;;;;6.52;100.00;102273.13;10332768;28;20058;-71
2023/12/14 17:01:30;;;;;;;21.42;4.57;;;;;;;6.49;100.00;102286.84;10319999;28;20034;-70
2023/12/14 17:06:31;;;;;;;7.40;4.30;;;;;;;6.30;100.00;102289.47;10335511;28;20042;-71
2023/12/14 17:11:32;;;;;;;13.23;7.53;;;;;;;6.15;100.00;102306.97;10317749;28;20023;-71
2023/12/14 17:16:32;;;;;;;11.68;3.83;;;;;;;6.03;100.00;102311.56;10330356;28;20041;-71
2023/12/14 17:21:33;;;;;;;9.80;5.10;;;;;;;5.90;100.00;102317.13;10331533;28;20105;-70
2023/12/14 17:26:34;;;;;;;15.75;6.82;;;;;;;5.79;100.00;102315.34;10331559;28;20093;-70
2023/12/14 17:31:34;;;;;;;6.38;3.58;;;;;;;5.72;100.00;102322.25;10339757;28;20026;-71
2023/12/14 17:36:39;;;;;;;8.38;4.55;;;;;;;5.68;100.00;102312.75;10334755;28;20042;-70
2023/12/14 17:41:40;;;;;;;14.95;4.40;;;;;;;5.71;100.00;102331.31;10329421;28;20041;-71
2023/12/14 17:46:40;;;;;;;8.15;3.80;;;;;;;5.75;100.00;102346.19;10330433;28;20465;-70
2023/12/14 17:51:41;;;;;;;11.13;4.50;;;;;;;5.85;100.00;102337.34;10299939;28;20050;-71
2023/12/14 17:56:41;;;;;;;10.25;3.67;;;;;;;6.02;100.00;102344.81;10336885;28;20117;-71
2023/12/14 18:01:44;;;;;;;12.57;4.38;;;;;;;6.11;100.00;102356.63;10335326;28;20038;-70
2023/12/14 18:06:47;;;;;;;5.40;2.33;;;;;;;6.23;100.00;102353.72;10335754;28;20087;-71
2023/12/14 18:11:48;;;;;;;4.75;3.03;;;;;;;6.31;100.00;102360.28;10337022;28;20249;-71
2023/12/14 18:16:48;;;;;;;9.50;4.65;;;;;;;6.43;100.00;102369.97;10334904;28;20366;-70
2023/12/14 18:21:49;;;;;;;5.88;3.20;;;;;;;6.57;100.00;102366.06;10335777;28;20030;-71
2023/12/14 18:26:49;;;;;;;2.85;2.38;;;;;;;6.66;100.00;102376.84;10336297;28;20073;-71
2023/12/14 18:31:50;;;;;;;11.18;4.28;;;;;;;6.78;100.00;102371.41;10335633;28;20405;-71
2023/12/14 18:36:51;;;;;;;6.70;3.38;;;;;;;6.85;100.00;102380.63;10334065;28;20129;-71
2023/12/14 18:41:52;;;;;;;13.18;3.60;;;;;;;6.83;100.00;102386.16;10334837;28;20051;-71
2023/12/14 18:46:52;;;;;;;7.15;3.13;;;;;;;6.85;100.00;102384.16;10336026;28;20146;-71
2023/12/14 18:51:53;;;;;;;11.60;3.90;;;;;;;6.86;100.00;102399.34;10333695;28;20034;-70
2023/12/14 18:56:54;;;;;;;4.68;3.35;;;;;;;6.91;100.00;102404.31;10335503;28;20462;-70
2023/12/14 19:01:55;;;;;;;16.20;3.55;;;;;;;6.99;100.00;102405.34;10334020;28;20042;-71
2023/12/14 19:06:55;;;;;;;6.88;4.20;;;;;;;7.04;100.00;102421.06;10334190;28;20463;-71
2023/12/14 19:11:55;;;;;;;9.82;4.18;;;;;;;7.05;100.00;102430.00;10334133;28;20113;-71
2023/12/14 19:16:56;;;;;;;6.03;5.32;;;;;;;7.08;100.00;102433.28;10333851;28;20471;-71
2023/12/14 19:21:56;;;;;;;8.43;5.05;;;;;;;6.99;100.00;102426.03;10333441;28;20358;-71
2023/12/14 19:26:57;;;;;;;12.68;6.82;;;;;;;6.99;100.00;102423.34;10332113;28;20044;-71
2023/12/14 19:31:57;;;;;;;14.25;8.63;;;;;;;6.98;100.00;102419.78;10333571;28;20488;-71
2023/12/14 19:36:58;;;;;;;10.60;9.38;;;;;;;7.09;100.00;102428.75;10334248;28;20109;-71
2023/12/14 19:41:59;;;;;;;14.25;9.43;;;;;;;7.14;100.00;102430.03;10332987;28;20042;-72
2023/12/14 19:46:59;;;;;;;7.55;4.85;;;;;;;7.10;100.00;102434.00;10333408;28;20030;-72
2023/12/14 19:51:59;;;;;;;5.82;4.47;;;;;;;7.13;100.00;102447.19;10333587;28;20077;-72
2023/12/14 19:57:00;;;;;;;10.13;4.68;;;;;;;7.17;100.00;102451.31;10318154;28;20054;-73
2023/12/14 20:02:00;;;;;;;5.18;4.15;;;;;;;7.20;100.00;102452.88;10333337;28;20358;-72
2023/12/14 20:07:01;;;;;;;5.55;2.97;;;;;;;7.30;100.00;102461.00;10332906;28;20103;-72
2023/12/14 20:12:01;;;;;;;4.22;2.80;;;;;;;7.32;100.00;102465.25;10330875;28;20089;-72
2023/12/14 20:17:02;;;;;;;8.75;4.55;;;;;;;7.29;100.00;102473.63;10331799;28;20400;-72
2023/12/14 20:22:03;;;;;;;11.85;4.25;;;;;;;7.37;100.00;102481.00;10330517;28;20026;-72
2023/12/14 20:27:04;;;;;;;5.35;4.38;;;;;;;7.31;100.00;102479.72;10332038;28;20030;-72
2023/12/14 20:32:05;;;;;;;8.88;3.60;;;;;;;7.41;100.00;102485.16;10332077;28;20038;-72
2023/12/14 20:37:05;;;;;;;8.68;3.42;;;;;;;7.45;100.00;102495.50;10330843;28;20475;-72
2023/12/14 20:42:06;;;;;;;4.55;3.30;;;;;;;7.35;100.00;102504.56;10330099;28;20337;-72
2023/12/14 20:47:06;;;;;;;14.10;3.85;;;;;;;7.31;100.00;102504.00;10329941;28;20034;-72
2023/12/14 20:52:07;;;;;;;4.43;3.42;;;;;;;7.28;100.00;102514.19;10331714;28;20348;-73
2023/12/14 20:57:08;;;;;;;3.83;3.15;;;;;;;7.24;100.00;102510.88;10330726;28;20088;-72
2023/12/14 21:02:09;;;;;;;11.30;4.13;;;;;;;7.19;100.00;102505.91;10313976;28;20359;-72
2023/12/14 21:07:09;;;;;;;5.25;4.70;;;;;;;7.16;100.00;102503.50;10313454;28;20039;-71
2023/12/14 21:12:10;;;;;;;9.43;4.70;;;;;;;7.08;100.00;102508.69;10329815;28;20037;-71
2023/12/14 21:17:11;;;;;;;8.18;5.03;;;;;;;7.13;100.00;102519.94;10329751;28;20475;-71
2023/12/14 21:22:11;;;;;;;12.98;4.70;;;;;;;7.00;100.00;102519.31;10347191;28;20026;-72
2023/12/14 21:32:31;;;;;;;9.38;7.32;;;;;;;7.11;100.00;102529.97;10338397;28;20026;-71
2023/12/14 21:37:31;;;;;;;13.52;7.30;;;;;;;7.11;100.00;102538.06;10338300;28;20467;-72
2023/12/14 21:42:32;;;;;;;13.52;8.38;;;;;;;7.07;100.00;102535.78;10338048;28;20445;-72
2023/12/14 21:47:33;;;;;;;18.85;9.48;;;;;;;7.10;100.00;102544.44;10321872;28;20430;-72
2023/12/14 21:52:34;;;;;;;19.52;11.68;;;;;;;7.07;100.00;102539.31;10338538;28;20045;-71
2023/12/14 21:57:35;;;;;;;18.88;12.43;;;;;;;7.07;100.00;102552.78;10337011;28;20443;-70
2023/12/14 22:02:35;;;;;;;22.45;14.00;;;;;;;7.03;100.00;102567.53;10337014;28;20026;-71
2023/12/14 22:07:36;;;;;;;19.58;13.88;;;;;;;7.01;100.00;102569.50;10338481;28;20102;-73
2023/12/14 22:12:36;;;;;;;24.63;14.85;;;;;;;6.97;100.00;102581.53;10340072;28;20496;-72
2023/12/14 22:17:37;;;;;;;0.60;0.60;;;;;;;6.95;100.00;102578.09;10342628;28;20060;-72
2023/12/14 22:22:37;;;;;;;4.10;1.38;;;;;;;6.97;100.00;102585.06;10341429;28;20097;-72
2023/12/14 22:27:38;;;;;;;1.05;1.05;;;;;;;7.00;100.00;102602.81;10342866;28;20041;-71
2023/12/14 22:32:39;;;;;;;1.17;1.10;;;;;;;7.07;100.00;102603.13;10339973;28;20042;-71
2023/12/14 22:37:39;;;;;;;3.40;3.20;;;;;;;7.08;100.00;102608.38;10339218;28;20427;-71
2023/12/14 22:42:40;;;;;;;0.88;0.88;;;;;;;7.10;100.00;102614.50;10340273;28;20129;-71
2023/12/14 22:47:41;;;;;;;0.60;0.60;;;;;;;7.10;100.00;102609.09;10340625;28;20389;-71
2023/12/14 22:52:41;;;;;;;0.95;0.95;;;;;;;7.14;100.00;102613.22;10336435;28;20113;-71
2023/12/14 22:57:42;;;;;;;0.60;0.60;;;;;;;7.12;100.00;102615.22;10334691;28;20542;-71